sensor_id;sensor_type;location;lat;lon;timestamp;temperature;humidity
55036;DHT22;40936;53.008;6.556;2023-04-03T00:00:40;4.20;97.50
55036;DHT22;40936;53.008;6.556;2023-04-03T00:03:05;6.30;99.40
55036;DHT22;40936;53.008;6.556;2023-04-03T00:05:31;6.60;98.80
55036;DHT22;40936;53.008;6.556;2023-04-03T00:07:57;3.90;99.90
55036;DHT22;40936;53.008;6.556;2023-04-03T00:10:23;6.50;99.40
55036;DHT22;40936;53.008;6.556;2023-04-03T00:12:48;4.00;99.00
55036;DHT22;40936;53.008;6.556;2023-04-03T00:17:40;3.00;99.90
55036;DHT22;40936;53.008;6.556;2023-04-03T00:20:06;3.90;99.90
55036;DHT22;40936;53.008;6.556;2023-04-03T00:22:32;4.10;99.90
55036;DHT22;40936;53.008;6.556;2023-04-03T00:24:58;5.00;99.90
55036;DHT22;40936;53.008;6.556;2023-04-03T00:27:24;3.30;99.90
55036;DHT22;40936;53.008;6.556;2023-04-03T00:29:49;4.00;99.10
55036;DHT22;40936;53.008;6.556;2023-04-03T00:32:15;4.70;99.90
55036;DHT22;40936;53.008;6.556;2023-04-03T00:34:40;4.30;99.90
55036;DHT22;40936;53.008;6.556;2023-04-03T00:37:06;5.20;98.10
55036;DHT22;40936;53.008;6.556;2023-04-03T00:39:32;3.10;99.90
55036;DHT22;40936;53.008;6.556;2023-04-03T00:41:58;3.70;98.60
55036;DHT22;40936;53.008;6.556;2023-04-03T00:46:59;6.40;99.90
55036;DHT22;40936;53.008;6.556;2023-04-03T00:51:51;3.80;93.30
55036;DHT22;40936;53.008;6.556;2023-04-03T00:54:17;3.90;99.90
55036;DHT22;40936;53.008;6.556;2023-04-03T00:56:43;5.60;99.90
55036;DHT22;40936;53.008;6.556;2023-04-03T00:59:23;5.10;99.90
55036;DHT22;40936;53.008;6.556;2023-04-03T01:01:53;3.50;99.10
55036;DHT22;40936;53.008;6.556;2023-04-03T01:04:38;2.70;99.90
55036;DHT22;40936;53.008;6.556;2023-04-03T01:07:08;4.40;99.90
55036;DHT22;40936;53.008;6.556;2023-04-03T01:09:35;4.70;99.90
55036;DHT22;40936;53.008;6.556;2023-04-03T01:12:15;3.90;99.90
55036;DHT22;40936;53.008;6.556;2023-04-03T01:14:46;5.60;99.90
55036;DHT22;40936;53.008;6.556;2023-04-03T01:17:32;5.80;99.90
55036;DHT22;40936;53.008;6.556;2023-04-03T01:25:42;3.90;99.90
55036;DHT22;40936;53.008;6.556;2023-04-03T01:28:10;5.40;99.90
55036;DHT22;40936;53.008;6.556;2023-04-03T01:31:27;4.10;99.90
55036;DHT22;40936;53.008;6.556;2023-04-03T01:33:26;1.20;99.90
55036;DHT22;40936;53.008;6.556;2023-04-03T01:35:52;5.60;99.90
55036;DHT22;40936;53.008;6.556;2023-04-03T01:38:18;2.70;99.90
55036;DHT22;40936;53.008;6.556;2023-04-03T01:40:43;3.00;99.90
55036;DHT22;40936;53.008;6.556;2023-04-03T01:43:09;5.40;99.90
55036;DHT22;40936;53.008;6.556;2023-04-03T01:45:35;2.60;99.90
55036;DHT22;40936;53.008;6.556;2023-04-03T01:48:01;4.60;99.90
55036;DHT22;40936;53.008;6.556;2023-04-03T01:50:27;3.50;99.90
55036;DHT22;40936;53.008;6.556;2023-04-03T01:52:52;5.20;99.90
55036;DHT22;40936;53.008;6.556;2023-04-03T01:55:18;4.10;99.90
55036;DHT22;40936;53.008;6.556;2023-04-03T01:57:44;4.80;99.90
55036;DHT22;40936;53.008;6.556;2023-04-03T02:00:10;2.50;99.90
55036;DHT22;40936;53.008;6.556;2023-04-03T02:02:36;1.70;99.90
55036;DHT22;40936;53.008;6.556;2023-04-03T02:05:02;2.70;99.90
55036;DHT22;40936;53.008;6.556;2023-04-03T02:09:53;2.70;99.90
55036;DHT22;40936;53.008;6.556;2023-04-03T02:12:19;2.50;99.90
55036;DHT22;40936;53.008;6.556;2023-04-03T02:14:45;5.20;99.90
55036;DHT22;40936;53.008;6.556;2023-04-03T02:17:10;3.00;99.90
55036;DHT22;40936;53.008;6.556;2023-04-03T02:19:36;1.10;99.90
55036;DHT22;40936;53.008;6.556;2023-04-03T02:22:05;4.30;99.90
55036;DHT22;40936;53.008;6.556;2023-04-03T02:24:31;2.40;99.90
55036;DHT22;40936;53.008;6.556;2023-04-03T02:26:57;3.30;99.90
55036;DHT22;40936;53.008;6.556;2023-04-03T02:29:23;2.10;99.90
55036;DHT22;40936;53.008;6.556;2023-04-03T02:31:50;2.20;99.90
55036;DHT22;40936;53.008;6.556;2023-04-03T02:34:16;2.40;99.90
55036;DHT22;40936;53.008;6.556;2023-04-03T02:39:08;2.40;99.90
55036;DHT22;40936;53.008;6.556;2023-04-03T02:41:34;2.90;99.90
55036;DHT22;40936;53.008;6.556;2023-04-03T02:44:05;2.00;99.90
55036;DHT22;40936;53.008;6.556;2023-04-03T02:46:31;2.70;99.90
55036;DHT22;40936;53.008;6.556;2023-04-03T02:48:57;2.20;99.90
55036;DHT22;40936;53.008;6.556;2023-04-03T02:51:23;3.10;99.90
55036;DHT22;40936;53.008;6.556;2023-04-03T02:53:49;4.70;99.90
55036;DHT22;40936;53.008;6.556;2023-04-03T02:56:15;3.80;99.90
55036;DHT22;40936;53.008;6.556;2023-04-03T02:58:42;2.40;99.90
55036;DHT22;40936;53.008;6.556;2023-04-03T03:01:08;2.90;99.90
55036;DHT22;40936;53.008;6.556;2023-04-03T03:03:34;2.60;99.90
55036;DHT22;40936;53.008;6.556;2023-04-03T03:06:26;4.00;99.90
55036;DHT22;40936;53.008;6.556;2023-04-03T03:08:52;1.80;99.90
55036;DHT22;40936;53.008;6.556;2023-04-03T03:11:18;4.90;99.90
55036;DHT22;40936;53.008;6.556;2023-04-03T03:13:44;-1.00;99.90
55036;DHT22;40936;53.008;6.556;2023-04-03T03:21:03;2.00;99.90
55036;DHT22;40936;53.008;6.556;2023-04-03T03:23:30;2.00;99.90
55036;DHT22;40936;53.008;6.556;2023-04-03T03:26:04;3.10;99.90
55036;DHT22;40936;53.008;6.556;2023-04-03T03:28:31;1.70;99.90
55036;DHT22;40936;53.008;6.556;2023-04-03T03:30:58;3.20;99.90
55036;DHT22;40936;53.008;6.556;2023-04-03T03:33:24;3.20;99.90
55036;DHT22;40936;53.008;6.556;2023-04-03T03:35:51;1.30;99.90
55036;DHT22;40936;53.008;6.556;2023-04-03T03:38:17;1.80;99.90
55036;DHT22;40936;53.008;6.556;2023-04-03T03:40:43;2.00;99.90
55036;DHT22;40936;53.008;6.556;2023-04-03T03:43:09;2.30;99.90
55036;DHT22;40936;53.008;6.556;2023-04-03T03:45:34;1.10;99.90
55036;DHT22;40936;53.008;6.556;2023-04-03T03:50:26;1.10;99.90
55036;DHT22;40936;53.008;6.556;2023-04-03T03:52:52;1.20;99.90
55036;DHT22;40936;53.008;6.556;2023-04-03T03:55:18;1.30;99.90
55036;DHT22;40936;53.008;6.556;2023-04-03T03:57:43;3.40;99.90
55036;DHT22;40936;53.008;6.556;2023-04-03T04:00:10;1.40;99.90
55036;DHT22;40936;53.008;6.556;2023-04-03T04:05:02;1.50;99.90
55036;DHT22;40936;53.008;6.556;2023-04-03T04:07:27;1.50;99.90
55036;DHT22;40936;53.008;6.556;2023-04-03T04:09:54;1.00;99.90
55036;DHT22;40936;53.008;6.556;2023-04-03T04:12:20;4.40;99.90
55036;DHT22;40936;53.008;6.556;2023-04-03T04:14:47;0.10;99.90
55036;DHT22;40936;53.008;6.556;2023-04-03T04:17:13;2.70;99.90
55036;DHT22;40936;53.008;6.556;2023-04-03T04:19:40;0.60;99.90
55036;DHT22;40936;53.008;6.556;2023-04-03T04:24:31;1.20;99.90
55036;DHT22;40936;53.008;6.556;2023-04-03T04:26:57;1.70;99.90
55036;DHT22;40936;53.008;6.556;2023-04-03T04:29:23;3.30;99.90
55036;DHT22;40936;53.008;6.556;2023-04-03T04:31:49;1.60;99.90
55036;DHT22;40936;53.008;6.556;2023-04-03T04:39:07;2.40;99.90
55036;DHT22;40936;53.008;6.556;2023-04-03T04:41:33;1.90;99.90
55036;DHT22;40936;53.008;6.556;2023-04-03T04:43:59;2.50;99.90
55036;DHT22;40936;53.008;6.556;2023-04-03T04:46:25;3.50;99.90
55036;DHT22;40936;53.008;6.556;2023-04-03T04:48:51;2.50;99.90
55036;DHT22;40936;53.008;6.556;2023-04-03T04:51:17;0.80;99.90
55036;DHT22;40936;53.008;6.556;2023-04-03T04:53:43;1.90;99.90
55036;DHT22;40936;53.008;6.556;2023-04-03T04:56:09;3.30;99.90
55036;DHT22;40936;53.008;6.556;2023-04-03T04:58:34;0.60;99.90
55036;DHT22;40936;53.008;6.556;2023-04-03T05:01:02;1.50;99.90
55036;DHT22;40936;53.008;6.556;2023-04-03T05:03:28;1.00;99.90
55036;DHT22;40936;53.008;6.556;2023-04-03T05:05:54;2.10;99.90
55036;DHT22;40936;53.008;6.556;2023-04-03T05:08:20;2.40;99.90
55036;DHT22;40936;53.008;6.556;2023-04-03T05:10:46;0.60;99.90
55036;DHT22;40936;53.008;6.556;2023-04-03T05:13:12;2.30;99.90
55036;DHT22;40936;53.008;6.556;2023-04-03T05:15:38;3.50;99.90
55036;DHT22;40936;53.008;6.556;2023-04-03T05:18:04;0.50;99.90
55036;DHT22;40936;53.008;6.556;2023-04-03T05:20:31;2.50;99.90
55036;DHT22;40936;53.008;6.556;2023-04-03T05:22:56;1.70;99.90
55036;DHT22;40936;53.008;6.556;2023-04-03T05:25:22;4.10;99.90
55036;DHT22;40936;53.008;6.556;2023-04-03T05:30:14;2.40;99.90
55036;DHT22;40936;53.008;6.556;2023-04-03T05:32:40;1.20;99.90
55036;DHT22;40936;53.008;6.556;2023-04-03T05:35:06;1.20;99.90
55036;DHT22;40936;53.008;6.556;2023-04-03T05:37:33;1.30;99.90
55036;DHT22;40936;53.008;6.556;2023-04-03T05:39:59;1.10;99.90
55036;DHT22;40936;53.008;6.556;2023-04-03T05:42:24;2.70;99.90
55036;DHT22;40936;53.008;6.556;2023-04-03T05:47:17;1.60;99.90
55036;DHT22;40936;53.008;6.556;2023-04-03T05:49:43;3.80;99.90
55036;DHT22;40936;53.008;6.556;2023-04-03T05:52:26;2.70;99.90
55036;DHT22;40936;53.008;6.556;2023-04-03T05:54:53;1.60;99.90
55036;DHT22;40936;53.008;6.556;2023-04-03T05:57:19;1.70;99.90
55036;DHT22;40936;53.008;6.556;2023-04-03T05:59:45;1.70;99.90
55036;DHT22;40936;53.008;6.556;2023-04-03T06:02:20;1.60;99.90
55036;DHT22;40936;53.008;6.556;2023-04-03T06:07:24;1.00;99.90
55036;DHT22;40936;53.008;6.556;2023-04-03T06:12:19;2.00;99.90
55036;DHT22;40936;53.008;6.556;2023-04-03T06:14:46;2.80;99.90
55036;DHT22;40936;53.008;6.556;2023-04-03T06:17:11;3.40;99.90
55036;DHT22;40936;53.008;6.556;2023-04-03T06:19:37;3.20;99.90
55036;DHT22;40936;53.008;6.556;2023-04-03T06:22:03;2.00;99.90
55036;DHT22;40936;53.008;6.556;2023-04-03T06:24:30;3.20;99.90
55036;DHT22;40936;53.008;6.556;2023-04-03T06:26:57;1.50;99.90
55036;DHT22;40936;53.008;6.556;2023-04-03T06:29:23;3.90;99.90
55036;DHT22;40936;53.008;6.556;2023-04-03T06:31:49;4.60;99.90
55036;DHT22;40936;53.008;6.556;2023-04-03T06:34:15;2.50;99.90
55036;DHT22;40936;53.008;6.556;2023-04-03T06:36:42;1.90;99.90
55036;DHT22;40936;53.008;6.556;2023-04-03T06:39:15;2.50;99.90
55036;DHT22;40936;53.008;6.556;2023-04-03T06:44:08;1.60;99.90
55036;DHT22;40936;53.008;6.556;2023-04-03T06:46:37;3.20;99.90
55036;DHT22;40936;53.008;6.556;2023-04-03T06:49:04;2.30;99.90
55036;DHT22;40936;53.008;6.556;2023-04-03T06:53:59;2.80;99.90
55036;DHT22;40936;53.008;6.556;2023-04-03T06:56:26;4.80;99.90
55036;DHT22;40936;53.008;6.556;2023-04-03T06:58:53;4.20;99.90
55036;DHT22;40936;53.008;6.556;2023-04-03T07:01:27;3.00;99.90
55036;DHT22;40936;53.008;6.556;2023-04-03T07:03:54;3.30;99.90
55036;DHT22;40936;53.008;6.556;2023-04-03T07:06:20;3.20;99.90
55036;DHT22;40936;53.008;6.556;2023-04-03T07:08:46;3.50;99.90
55036;DHT22;40936;53.008;6.556;2023-04-03T07:11:13;2.70;99.90
55036;DHT22;40936;53.008;6.556;2023-04-03T07:13:40;2.30;99.90
55036;DHT22;40936;53.008;6.556;2023-04-03T07:16:06;3.50;99.90
55036;DHT22;40936;53.008;6.556;2023-04-03T07:18:32;3.60;99.90
55036;DHT22;40936;53.008;6.556;2023-04-03T07:20:59;4.80;99.90
55036;DHT22;40936;53.008;6.556;2023-04-03T07:23:25;3.70;99.90
55036;DHT22;40936;53.008;6.556;2023-04-03T07:25:51;4.40;99.90
55036;DHT22;40936;53.008;6.556;2023-04-03T07:28:19;4.20;99.90
55036;DHT22;40936;53.008;6.556;2023-04-03T07:30:50;5.10;99.90
55036;DHT22;40936;53.008;6.556;2023-04-03T07:33:18;3.60;99.90
55036;DHT22;40936;53.008;6.556;2023-04-03T07:35:45;6.30;99.90
55036;DHT22;40936;53.008;6.556;2023-04-03T07:38:11;3.70;99.90
55036;DHT22;40936;53.008;6.556;2023-04-03T07:40:37;6.80;99.90
55036;DHT22;40936;53.008;6.556;2023-04-03T07:43:04;9.90;99.90
55036;DHT22;40936;53.008;6.556;2023-04-03T07:45:31;8.60;99.90
55036;DHT22;40936;53.008;6.556;2023-04-03T07:47:57;10.10;99.90
55036;DHT22;40936;53.008;6.556;2023-04-03T07:50:22;11.90;99.90
55036;DHT22;40936;53.008;6.556;2023-04-03T07:52:48;13.70;98.00
55036;DHT22;40936;53.008;6.556;2023-04-03T07:55:16;14.50;80.80
55036;DHT22;40936;53.008;6.556;2023-04-03T08:00:09;14.90;14.60
55036;DHT22;40936;53.008;6.556;2023-04-03T08:02:35;15.50;28.70
55036;DHT22;40936;53.008;6.556;2023-04-03T08:05:01;16.40;28.00
55036;DHT22;40936;53.008;6.556;2023-04-03T08:07:26;17.00;17.30
55036;DHT22;40936;53.008;6.556;2023-04-03T08:09:52;17.50;12.80
55036;DHT22;40936;53.008;6.556;2023-04-03T08:12:18;17.60;1.00
55036;DHT22;40936;53.008;6.556;2023-04-03T08:14:44;17.70;1.00
55036;DHT22;40936;53.008;6.556;2023-04-03T08:17:10;16.10;1.00
55036;DHT22;40936;53.008;6.556;2023-04-03T08:19:40;16.50;1.00
55036;DHT22;40936;53.008;6.556;2023-04-03T08:22:06;17.20;1.00
55036;DHT22;40936;53.008;6.556;2023-04-03T08:24:33;17.30;1.00
55036;DHT22;40936;53.008;6.556;2023-04-03T08:26:58;17.80;1.00
55036;DHT22;40936;53.008;6.556;2023-04-03T08:29:24;18.50;1.00
55036;DHT22;40936;53.008;6.556;2023-04-03T08:31:51;17.80;1.00
55036;DHT22;40936;53.008;6.556;2023-04-03T08:34:17;17.50;1.00
55036;DHT22;40936;53.008;6.556;2023-04-03T08:36:43;17.30;1.00
55036;DHT22;40936;53.008;6.556;2023-04-03T08:39:09;17.80;1.00
55036;DHT22;40936;53.008;6.556;2023-04-03T08:41:39;18.50;1.00
55036;DHT22;40936;53.008;6.556;2023-04-03T08:49:53;18.80;1.00
55036;DHT22;40936;53.008;6.556;2023-04-03T08:52:32;19.50;1.00
55036;DHT22;40936;53.008;6.556;2023-04-03T08:55:29;20.10;1.00
55036;DHT22;40936;53.008;6.556;2023-04-03T08:58:05;20.70;1.00
55036;DHT22;40936;53.008;6.556;2023-04-03T09:00:54;21.60;1.00
55036;DHT22;40936;53.008;6.556;2023-04-03T09:03:21;22.00;1.00
55036;DHT22;40936;53.008;6.556;2023-04-03T09:06:08;21.00;1.00
55036;DHT22;40936;53.008;6.556;2023-04-03T09:09:15;21.10;1.00
55036;DHT22;40936;53.008;6.556;2023-04-03T09:15:06;20.30;1.00
55036;DHT22;40936;53.008;6.556;2023-04-03T09:20:25;19.40;1.00
55036;DHT22;40936;53.008;6.556;2023-04-03T09:22:53;19.60;1.00
55036;DHT22;40936;53.008;6.556;2023-04-03T09:25:23;20.60;1.00
55036;DHT22;40936;53.008;6.556;2023-04-03T09:27:51;19.90;1.00
55036;DHT22;40936;53.008;6.556;2023-04-03T09:30:26;20.50;1.00
55036;DHT22;40936;53.008;6.556;2023-04-03T09:32:55;21.40;1.00
55036;DHT22;40936;53.008;6.556;2023-04-03T09:38:02;19.60;1.00
55036;DHT22;40936;53.008;6.556;2023-04-03T09:40:47;19.50;1.00
55036;DHT22;40936;53.008;6.556;2023-04-03T09:43:30;19.60;1.00
55036;DHT22;40936;53.008;6.556;2023-04-03T09:46:29;20.40;1.00
55036;DHT22;40936;53.008;6.556;2023-04-03T09:49:03;20.70;1.00
55036;DHT22;40936;53.008;6.556;2023-04-03T09:51:30;20.40;1.00
55036;DHT22;40936;53.008;6.556;2023-04-03T09:53:56;20.50;1.00
55036;DHT22;40936;53.008;6.556;2023-04-03T09:56:25;21.00;1.00
55036;DHT22;40936;53.008;6.556;2023-04-03T10:01:37;21.70;1.00
55036;DHT22;40936;53.008;6.556;2023-04-03T10:04:10;21.90;1.00
55036;DHT22;40936;53.008;6.556;2023-04-03T10:06:47;21.50;1.00
55036;DHT22;40936;53.008;6.556;2023-04-03T10:09:23;21.90;1.00
55036;DHT22;40936;53.008;6.556;2023-04-03T10:12:09;21.30;1.00
55036;DHT22;40936;53.008;6.556;2023-04-03T10:14:40;21.40;1.00
55036;DHT22;40936;53.008;6.556;2023-04-03T10:17:18;21.80;1.00
55036;DHT22;40936;53.008;6.556;2023-04-03T10:30:41;22.60;1.00
55036;DHT22;40936;53.008;6.556;2023-04-03T10:33:30;23.10;1.00
55036;DHT22;40936;53.008;6.556;2023-04-03T10:47:26;23.10;1.00
55036;DHT22;40936;53.008;6.556;2023-04-03T10:50:22;21.60;1.00
55036;DHT22;40936;53.008;6.556;2023-04-03T10:53:01;22.30;1.00
55036;DHT22;40936;53.008;6.556;2023-04-03T10:55:52;22.10;1.00
55036;DHT22;40936;53.008;6.556;2023-04-03T10:58:26;20.60;1.00
55036;DHT22;40936;53.008;6.556;2023-04-03T11:00:59;20.40;1.00
55036;DHT22;40936;53.008;6.556;2023-04-03T11:03:36;21.30;1.00
55036;DHT22;40936;53.008;6.556;2023-04-03T11:06:08;21.40;1.00
55036;DHT22;40936;53.008;6.556;2023-04-03T11:11:31;22.20;1.00
55036;DHT22;40936;53.008;6.556;2023-04-03T11:14:21;22.70;1.00
55036;DHT22;40936;53.008;6.556;2023-04-03T11:19:49;23.10;1.00
55036;DHT22;40936;53.008;6.556;2023-04-03T11:22:27;23.10;1.00
55036;DHT22;40936;53.008;6.556;2023-04-03T11:27:57;23.50;1.00
55036;DHT22;40936;53.008;6.556;2023-04-03T11:30:39;23.90;1.00
55036;DHT22;40936;53.008;6.556;2023-04-03T11:35:58;23.30;1.00
55036;DHT22;40936;53.008;6.556;2023-04-03T11:38:35;23.10;1.00
55036;DHT22;40936;53.008;6.556;2023-04-03T11:41:07;23.50;1.00
55036;DHT22;40936;53.008;6.556;2023-04-03T11:43:36;23.70;1.00
55036;DHT22;40936;53.008;6.556;2023-04-03T11:46:06;23.00;1.00
55036;DHT22;40936;53.008;6.556;2023-04-03T11:53:40;22.80;1.00
55036;DHT22;40936;53.008;6.556;2023-04-03T12:01:54;22.10;1.00
55036;DHT22;40936;53.008;6.556;2023-04-03T12:04:23;22.40;1.00
55036;DHT22;40936;53.008;6.556;2023-04-03T12:07:02;22.20;1.00
55036;DHT22;40936;53.008;6.556;2023-04-03T12:09:32;22.40;1.00
55036;DHT22;40936;53.008;6.556;2023-04-03T12:12:00;22.70;1.00
55036;DHT22;40936;53.008;6.556;2023-04-03T12:14:27;22.60;1.00
55036;DHT22;40936;53.008;6.556;2023-04-03T12:16:54;22.90;1.00
55036;DHT22;40936;53.008;6.556;2023-04-03T12:24:28;22.30;1.00
55036;DHT22;40936;53.008;6.556;2023-04-03T12:35:44;15.60;1.00
55036;DHT22;40936;53.008;6.556;2023-04-03T12:38:17;14.90;1.00
55036;DHT22;40936;53.008;6.556;2023-04-03T12:46:35;13.90;1.00
55036;DHT22;40936;53.008;6.556;2023-04-03T12:49:54;13.50;1.00
55036;DHT22;40936;53.008;6.556;2023-04-03T12:52:22;13.20;1.00
55036;DHT22;40936;53.008;6.556;2023-04-03T12:54:51;12.90;1.00
55036;DHT22;40936;53.008;6.556;2023-04-03T12:57:24;12.70;1.00
55036;DHT22;40936;53.008;6.556;2023-04-03T12:59:50;12.60;1.00
55036;DHT22;40936;53.008;6.556;2023-04-03T13:02:28;12.50;1.00
55036;DHT22;40936;53.008;6.556;2023-04-03T13:04:57;12.50;1.00
55036;DHT22;40936;53.008;6.556;2023-04-03T13:07:30;12.40;1.00
55036;DHT22;40936;53.008;6.556;2023-04-03T13:12:29;12.20;1.00
55036;DHT22;40936;53.008;6.556;2023-04-03T13:14:59;12.00;1.00
55036;DHT22;40936;53.008;6.556;2023-04-03T13:17:26;11.70;1.00
55036;DHT22;40936;53.008;6.556;2023-04-03T13:19:53;11.30;1.00
55036;DHT22;40936;53.008;6.556;2023-04-03T13:22:36;11.20;1.00
55036;DHT22;40936;53.008;6.556;2023-04-03T13:25:09;11.20;1.00
55036;DHT22;40936;53.008;6.556;2023-04-03T13:27:36;11.20;1.00
55036;DHT22;40936;53.008;6.556;2023-04-03T13:30:05;11.20;1.00
55036;DHT22;40936;53.008;6.556;2023-04-03T13:32:31;11.20;1.00
55036;DHT22;40936;53.008;6.556;2023-04-03T13:34:58;11.20;1.00
55036;DHT22;40936;53.008;6.556;2023-04-03T13:37:29;11.20;1.00
55036;DHT22;40936;53.008;6.556;2023-04-03T13:42:30;11.10;1.00
55036;DHT22;40936;53.008;6.556;2023-04-03T13:47:43;10.90;1.00
55036;DHT22;40936;53.008;6.556;2023-04-03T13:50:20;10.80;1.00
55036;DHT22;40936;53.008;6.556;2023-04-03T13:52:52;10.60;1.00
55036;DHT22;40936;53.008;6.556;2023-04-03T13:55:25;10.70;1.00
55036;DHT22;40936;53.008;6.556;2023-04-03T13:58:02;10.70;1.00
55036;DHT22;40936;53.008;6.556;2023-04-03T14:00:48;10.70;1.00
55036;DHT22;40936;53.008;6.556;2023-04-03T14:03:28;10.70;1.00
55036;DHT22;40936;53.008;6.556;2023-04-03T14:05:54;10.60;1.00
55036;DHT22;40936;53.008;6.556;2023-04-03T14:08:21;10.60;1.00
55036;DHT22;40936;53.008;6.556;2023-04-03T14:10:47;10.60;1.00
55036;DHT22;40936;53.008;6.556;2023-04-03T14:13:14;10.60;1.00
55036;DHT22;40936;53.008;6.556;2023-04-03T14:15:41;10.60;1.00
55036;DHT22;40936;53.008;6.556;2023-04-03T14:18:12;10.50;1.00
55036;DHT22;40936;53.008;6.556;2023-04-03T14:20:38;10.60;1.00
55036;DHT22;40936;53.008;6.556;2023-04-03T14:23:04;10.50;1.00
55036;DHT22;40936;53.008;6.556;2023-04-03T14:25:29;10.40;1.00
55036;DHT22;40936;53.008;6.556;2023-04-03T14:27:55;10.40;1.00
55036;DHT22;40936;53.008;6.556;2023-04-03T14:30:25;10.30;1.00
55036;DHT22;40936;53.008;6.556;2023-04-03T14:32:52;10.40;1.00
55036;DHT22;40936;53.008;6.556;2023-04-03T14:35:18;10.30;1.00
55036;DHT22;40936;53.008;6.556;2023-04-03T14:37:46;8.90;1.00
55036;DHT22;40936;53.008;6.556;2023-04-03T14:40:23;10.20;1.00
55036;DHT22;40936;53.008;6.556;2023-04-03T14:42:50;10.20;1.00
55036;DHT22;40936;53.008;6.556;2023-04-03T14:45:17;10.10;1.00
55036;DHT22;40936;53.008;6.556;2023-04-03T14:47:47;10.20;1.00
55036;DHT22;40936;53.008;6.556;2023-04-03T14:50:17;10.20;1.00
55036;DHT22;40936;53.008;6.556;2023-04-03T14:52:44;10.20;1.00
55036;DHT22;40936;53.008;6.556;2023-04-03T14:55:13;10.20;1.00
55036;DHT22;40936;53.008;6.556;2023-04-03T14:57:40;10.20;1.00
55036;DHT22;40936;53.008;6.556;2023-04-03T15:00:11;10.20;1.00
55036;DHT22;40936;53.008;6.556;2023-04-03T15:02:38;10.20;1.00
55036;DHT22;40936;53.008;6.556;2023-04-03T15:05:07;10.10;1.00
55036;DHT22;40936;53.008;6.556;2023-04-03T15:07:46;10.10;1.00
55036;DHT22;40936;53.008;6.556;2023-04-03T15:12:45;10.00;1.00
55036;DHT22;40936;53.008;6.556;2023-04-03T15:15:11;9.90;1.00
55036;DHT22;40936;53.008;6.556;2023-04-03T15:17:38;9.90;1.00
55036;DHT22;40936;53.008;6.556;2023-04-03T15:20:12;10.00;1.00
55036;DHT22;40936;53.008;6.556;2023-04-03T15:22:38;10.00;1.00
55036;DHT22;40936;53.008;6.556;2023-04-03T15:25:05;10.30;1.00
55036;DHT22;40936;53.008;6.556;2023-04-03T15:27:30;9.90;1.00
55036;DHT22;40936;53.008;6.556;2023-04-03T15:29:56;9.90;1.00
55036;DHT22;40936;53.008;6.556;2023-04-03T15:32:22;9.80;1.00
55036;DHT22;40936;53.008;6.556;2023-04-03T15:34:47;9.90;1.00
55036;DHT22;40936;53.008;6.556;2023-04-03T15:37:13;9.70;1.00
55036;DHT22;40936;53.008;6.556;2023-04-03T15:39:38;9.80;1.00
55036;DHT22;40936;53.008;6.556;2023-04-03T15:42:04;9.90;1.00
55036;DHT22;40936;53.008;6.556;2023-04-03T15:44:33;9.80;1.00
55036;DHT22;40936;53.008;6.556;2023-04-03T15:46:59;9.80;1.00
55036;DHT22;40936;53.008;6.556;2023-04-03T15:51:52;9.70;1.00
55036;DHT22;40936;53.008;6.556;2023-04-03T15:54:19;9.70;1.00
55036;DHT22;40936;53.008;6.556;2023-04-03T15:56:51;9.70;1.00
55036;DHT22;40936;53.008;6.556;2023-04-03T15:59:17;9.70;1.00
55036;DHT22;40936;53.008;6.556;2023-04-03T16:01:43;9.60;1.00
55036;DHT22;40936;53.008;6.556;2023-04-03T16:04:09;9.70;1.00
55036;DHT22;40936;53.008;6.556;2023-04-03T16:06:36;9.70;1.00
55036;DHT22;40936;53.008;6.556;2023-04-03T16:09:02;9.70;1.00
55036;DHT22;40936;53.008;6.556;2023-04-03T16:11:28;9.80;1.00
55036;DHT22;40936;53.008;6.556;2023-04-03T16:13:55;9.80;1.00
55036;DHT22;40936;53.008;6.556;2023-04-03T16:16:21;9.80;1.00
55036;DHT22;40936;53.008;6.556;2023-04-03T16:18:47;9.70;1.00
55036;DHT22;40936;53.008;6.556;2023-04-03T16:21:13;9.70;1.00
55036;DHT22;40936;53.008;6.556;2023-04-03T16:23:41;9.70;1.00
55036;DHT22;40936;53.008;6.556;2023-04-03T16:26:06;9.60;1.00
55036;DHT22;40936;53.008;6.556;2023-04-03T16:28:32;9.60;1.00
55036;DHT22;40936;53.008;6.556;2023-04-03T16:30:59;9.50;1.00
55036;DHT22;40936;53.008;6.556;2023-04-03T16:33:26;9.50;1.00
55036;DHT22;40936;53.008;6.556;2023-04-03T16:35:52;9.40;1.00
55036;DHT22;40936;53.008;6.556;2023-04-03T16:38:19;9.40;1.00
55036;DHT22;40936;53.008;6.556;2023-04-03T16:40:45;9.30;1.00
55036;DHT22;40936;53.008;6.556;2023-04-03T16:43:11;9.30;1.00
55036;DHT22;40936;53.008;6.556;2023-04-03T16:45:37;9.20;1.00
55036;DHT22;40936;53.008;6.556;2023-04-03T16:48:03;9.20;1.00
55036;DHT22;40936;53.008;6.556;2023-04-03T16:50:29;9.10;1.00
55036;DHT22;40936;53.008;6.556;2023-04-03T16:52:55;9.10;1.00
55036;DHT22;40936;53.008;6.556;2023-04-03T16:55:20;9.00;1.00
55036;DHT22;40936;53.008;6.556;2023-04-03T16:57:46;9.30;1.00
55036;DHT22;40936;53.008;6.556;2023-04-03T17:00:12;8.90;1.00
55036;DHT22;40936;53.008;6.556;2023-04-03T17:02:39;8.80;1.00
55036;DHT22;40936;53.008;6.556;2023-04-03T17:05:06;8.70;1.00
55036;DHT22;40936;53.008;6.556;2023-04-03T17:07:31;8.70;1.00
55036;DHT22;40936;53.008;6.556;2023-04-03T17:09:57;9.00;1.00
55036;DHT22;40936;53.008;6.556;2023-04-03T17:12:23;8.60;1.00
55036;DHT22;40936;53.008;6.556;2023-04-03T17:14:49;8.50;1.00
55036;DHT22;40936;53.008;6.556;2023-04-03T17:19:42;8.30;1.00
55036;DHT22;40936;53.008;6.556;2023-04-03T17:22:08;8.20;1.00
55036;DHT22;40936;53.008;6.556;2023-04-03T17:24:35;8.20;1.00
55036;DHT22;40936;53.008;6.556;2023-04-03T17:27:01;8.10;1.00
55036;DHT22;40936;53.008;6.556;2023-04-03T17:29:27;8.10;1.00
55036;DHT22;40936;53.008;6.556;2023-04-03T17:31:52;8.00;1.00
55036;DHT22;40936;53.008;6.556;2023-04-03T17:34:18;8.10;1.00
55036;DHT22;40936;53.008;6.556;2023-04-03T17:36:44;8.00;1.00
55036;DHT22;40936;53.008;6.556;2023-04-03T17:39:10;7.70;1.00
55036;DHT22;40936;53.008;6.556;2023-04-03T17:41:36;7.50;1.00
55036;DHT22;40936;53.008;6.556;2023-04-03T17:44:02;7.50;1.00
55036;DHT22;40936;53.008;6.556;2023-04-03T17:46:28;7.30;1.00
55036;DHT22;40936;53.008;6.556;2023-04-03T17:48:54;7.30;1.00
55036;DHT22;40936;53.008;6.556;2023-04-03T17:51:22;7.20;1.00
55036;DHT22;40936;53.008;6.556;2023-04-03T17:53:48;7.20;1.00
55036;DHT22;40936;53.008;6.556;2023-04-03T17:56:16;7.10;1.00
55036;DHT22;40936;53.008;6.556;2023-04-03T17:58:42;6.30;1.00
55036;DHT22;40936;53.008;6.556;2023-04-03T18:01:11;7.10;1.00
55036;DHT22;40936;53.008;6.556;2023-04-03T18:03:37;6.80;1.00
55036;DHT22;40936;53.008;6.556;2023-04-03T18:06:05;7.00;1.00
55036;DHT22;40936;53.008;6.556;2023-04-03T18:08:36;6.70;1.00
55036;DHT22;40936;53.008;6.556;2023-04-03T18:11:03;7.00;1.00
55036;DHT22;40936;53.008;6.556;2023-04-03T18:13:28;6.60;1.00
55036;DHT22;40936;53.008;6.556;2023-04-03T18:15:54;6.50;1.00
55036;DHT22;40936;53.008;6.556;2023-04-03T18:18:20;7.40;4.30
55036;DHT22;40936;53.008;6.556;2023-04-03T18:20:46;6.50;11.90
55036;DHT22;40936;53.008;6.556;2023-04-03T18:25:38;7.10;1.00
55036;DHT22;40936;53.008;6.556;2023-04-03T18:28:04;8.20;1.00
55036;DHT22;40936;53.008;6.556;2023-04-03T18:30:32;8.20;7.50